createdAt,value
2022-12-01T00:01:55.104Z,39.70
2022-12-01T00:04:25.127Z,29.00
2022-12-01T00:06:55.039Z,29.70
2022-12-01T00:09:44.805Z,27.80
2022-12-01T00:12:14.100Z,29.10
2022-12-01T00:14:44.880Z,29.70
2022-12-01T00:17:15.670Z,29.30
2022-12-01T00:19:47.304Z,32.70
2022-12-01T00:22:19.067Z,27.80
2022-12-01T00:24:49.634Z,29.10
2022-12-01T00:27:20.339Z,29.30
2022-12-01T00:29:51.351Z,26.70
2022-12-01T00:32:21.985Z,26.90
2022-12-01T00:34:52.772Z,26.60
2022-12-01T00:37:23.849Z,25.70
2022-12-01T00:39:58.869Z,25.10
2022-12-01T00:42:31.457Z,26.00
2022-12-01T00:45:02.098Z,24.00
2022-12-01T00:47:33.197Z,24.20
2022-12-01T00:50:04.923Z,24.40
2022-12-01T00:52:36.797Z,23.70
2022-12-01T00:55:07.383Z,24.70
2022-12-01T00:57:39.081Z,24.10
2022-12-01T01:00:11.289Z,23.00
2022-12-01T01:02:42.709Z,25.00
2022-12-01T01:05:14.159Z,23.50
2022-12-01T01:07:44.832Z,24.30
2022-12-01T01:10:15.990Z,25.50
2022-12-01T01:12:46.504Z,26.20
2022-12-01T01:15:17.119Z,24.80
2022-12-01T01:17:48.095Z,26.20
2022-12-01T01:20:19.018Z,24.30
2022-12-01T01:22:50.088Z,27.30
2022-12-01T01:25:20.615Z,25.70
2022-12-01T01:27:52.138Z,26.80
2022-12-01T01:30:24.038Z,24.30
2022-12-01T01:32:55.086Z,25.00
2022-12-01T01:35:26.337Z,25.10
2022-12-01T01:37:57.985Z,26.40
2022-12-01T01:40:29.215Z,23.50
2022-12-01T01:43:01.066Z,22.70
2022-12-01T01:45:31.959Z,23.30
2022-12-01T01:48:05.949Z,23.30
2022-12-01T01:50:37.853Z,24.40
2022-12-01T01:53:14.781Z,27.50
2022-12-01T01:55:45.761Z,26.40
2022-12-01T01:58:15.750Z,27.60
2022-12-01T02:00:47.119Z,24.70
2022-12-01T02:03:20.271Z,27.30
2022-12-01T02:05:51.879Z,27.00
2022-12-01T02:08:23.277Z,26.00
2022-12-01T02:11:07.362Z,28.20
2022-12-01T02:13:48.173Z,23.10
2022-12-01T02:16:30.348Z,23.40
2022-12-01T02:19:43.870Z,21.90
2022-12-01T02:22:42.770Z,21.90
2022-12-01T02:25:30.812Z,22.70
2022-12-01T02:28:48.335Z,22.40
2022-12-01T02:31:40.036Z,26.70
2022-12-01T02:34:41.170Z,32.90
2022-12-01T02:37:34.670Z,33.70
2022-12-01T02:40:20.345Z,30.20
2022-12-01T02:43:03.512Z,27.50
2022-12-01T02:45:56.573Z,25.60
2022-12-01T02:48:29.964Z,22.90
2022-12-01T02:51:07.577Z,24.70
2022-12-01T02:53:38.572Z,23.20
2022-12-01T02:56:13.157Z,24.60
2022-12-01T02:58:45.852Z,25.20
2022-12-01T03:01:45.492Z,27.90
2022-12-01T03:04:37.469Z,25.30
2022-12-01T03:07:46.550Z,24.90
2022-12-01T03:10:54.024Z,25.80
2022-12-01T03:13:34.524Z,25.40
2022-12-01T03:16:30.286Z,23.70
2022-12-01T03:19:08.283Z,34.20
2022-12-01T03:24:22.533Z,37.80
2022-12-01T03:26:57.870Z,30.60
2022-12-01T03:30:00.658Z,27.60
2022-12-01T03:32:50.228Z,26.80
2022-12-01T03:35:45.383Z,25.80
2022-12-01T03:38:22.289Z,25.20
2022-12-01T03:41:10.090Z,22.30
2022-12-01T03:43:50.311Z,20.70
2022-12-01T03:46:34.443Z,22.70
2022-12-01T03:49:06.169Z,25.70
2022-12-01T03:51:44.006Z,30.70
2022-12-01T03:54:33.999Z,35.40
2022-12-01T03:57:08.823Z,31.70
2022-12-01T03:59:46.713Z,30.50
2022-12-01T04:02:17.984Z,29.20
2022-12-01T04:04:49.188Z,27.00
2022-12-01T04:07:21.043Z,25.00
2022-12-01T04:09:52.309Z,23.20
2022-12-01T04:12:36.963Z,22.50
2022-12-01T04:15:15.370Z,22.20
2022-12-01T04:17:46.352Z,21.70
2022-12-01T04:20:18.293Z,20.80
2022-12-01T04:22:49.638Z,20.10
2022-12-01T04:25:20.064Z,23.10
2022-12-01T04:27:50.936Z,25.40
2022-12-01T04:30:21.578Z,28.00
2022-12-01T04:32:51.482Z,29.20
2022-12-01T04:35:24.339Z,30.20
2022-12-01T04:37:55.440Z,33.00
2022-12-01T04:40:25.958Z,35.90
2022-12-01T04:42:56.927Z,36.90
2022-12-01T04:45:27.654Z,35.30
2022-12-01T04:48:02.119Z,42.20
2022-12-01T04:50:32.227Z,34.00
2022-12-01T04:53:00.721Z,34.70
2022-12-01T04:55:31.718Z,29.20
2022-12-01T04:58:03.165Z,26.80
2022-12-01T05:00:33.997Z,27.40
2022-12-01T05:03:03.849Z,26.40
2022-12-01T05:05:33.556Z,26.90
2022-12-01T05:08:03.889Z,28.80
2022-12-01T05:10:38.921Z,26.20
2022-12-01T05:13:07.831Z,31.00
2022-12-01T05:15:37.797Z,34.30
2022-12-01T05:18:07.798Z,41.60
2022-12-01T05:20:56.757Z,40.10
2022-12-01T05:23:32.489Z,39.20
2022-12-01T05:26:05.248Z,34.40
2022-12-01T05:28:36.462Z,34.90
2022-12-01T05:31:06.555Z,34.20
2022-12-01T05:33:36.850Z,34.70
2022-12-01T05:36:05.811Z,35.70
2022-12-01T05:38:38.539Z,33.70
2022-12-01T05:41:08.587Z,25.50
2022-12-01T05:43:38.729Z,32.80
2022-12-01T05:46:08.882Z,33.40
2022-12-01T05:48:39.083Z,33.20
2022-12-01T05:51:10.624Z,30.70
2022-12-01T05:53:40.382Z,34.10
2022-12-01T05:56:10.551Z,33.10
2022-12-01T05:58:40.844Z,34.20
2022-12-01T06:01:11.153Z,36.60
2022-12-01T06:03:40.831Z,57.70
2022-12-01T06:06:11.193Z,50.20
2022-12-01T06:08:41.110Z,29.60
2022-12-01T06:11:11.307Z,33.60
2022-12-01T06:13:40.035Z,32.20
2022-12-01T06:16:10.123Z,36.20
2022-12-01T06:18:41.969Z,39.70
2022-12-01T06:21:12.027Z,51.10
2022-12-01T06:23:41.397Z,57.40
2022-12-01T06:26:11.782Z,38.80
2022-12-01T06:28:41.511Z,42.30
2022-12-01T06:31:11.187Z,59.40
2022-12-01T06:33:40.935Z,42.00
2022-12-01T06:36:11.232Z,49.10
2022-12-01T06:38:41.057Z,70.50
2022-12-01T06:41:10.716Z,53.60
2022-12-01T06:43:41.119Z,55.90
2022-12-01T06:46:11.170Z,73.60
2022-12-01T06:48:39.629Z,127.80
2022-12-01T06:51:11.033Z,140.40
2022-12-01T06:53:41.380Z,148.10
2022-12-01T06:56:11.136Z,116.80
2022-12-01T06:58:41.533Z,84.20
2022-12-01T07:01:14.671Z,61.70
2022-12-01T07:03:49.102Z,62.40
2022-12-01T07:06:19.955Z,61.00
2022-12-01T07:08:49.761Z,56.30
2022-12-01T07:11:21.950Z,56.40
2022-12-01T07:13:56.396Z,56.00
2022-12-01T07:16:26.550Z,55.90
2022-12-01T07:18:55.100Z,50.40
2022-12-01T07:21:25.266Z,52.30
2022-12-01T07:23:55.679Z,56.00
2022-12-01T07:26:25.094Z,54.30
2022-12-01T07:28:54.819Z,55.50
2022-12-01T07:31:24.619Z,59.20
2022-12-01T07:33:56.398Z,76.90
2022-12-01T07:36:26.421Z,64.90
2022-12-01T07:38:56.546Z,80.90
2022-12-01T07:41:26.619Z,67.30
2022-12-01T07:43:58.907Z,54.60
2022-12-01T07:46:29.455Z,56.30
2022-12-01T07:48:59.927Z,80.00
2022-12-01T07:51:30.155Z,79.00
2022-12-01T07:54:06.752Z,64.20
2022-12-01T07:56:36.364Z,58.10
2022-12-01T07:59:06.688Z,30.90
2022-12-01T08:01:39.261Z,26.20
2022-12-01T08:04:12.120Z,27.00
2022-12-01T08:06:42.133Z,24.60
2022-12-01T08:09:12.226Z,23.50
2022-12-01T08:11:42.517Z,22.50
2022-12-01T08:14:12.524Z,23.70
2022-12-01T08:16:41.838Z,21.30
2022-12-01T08:19:11.541Z,20.20
2022-12-01T08:21:42.366Z,19.30
2022-12-01T08:24:12.384Z,17.60
2022-12-01T08:26:41.063Z,17.10
2022-12-01T08:29:13.612Z,17.60
2022-12-01T08:31:47.013Z,18.60
2022-12-01T08:34:16.729Z,17.50
2022-12-01T08:36:45.232Z,18.10
2022-12-01T08:39:16.496Z,18.70
2022-12-01T08:41:48.276Z,17.30
2022-12-01T08:44:18.150Z,19.90
2022-12-01T08:46:47.992Z,16.40
2022-12-01T08:49:17.892Z,16.60
2022-12-01T08:51:47.621Z,16.90
2022-12-01T08:54:17.328Z,17.50
2022-12-01T08:56:47.537Z,17.70
2022-12-01T08:59:17.793Z,16.40
2022-12-01T09:01:54.521Z,18.10
2022-12-01T09:04:27.836Z,18.30
2022-12-01T09:06:58.445Z,20.20
2022-12-01T09:09:28.989Z,19.80
2022-12-01T09:11:58.840Z,20.80
2022-12-01T09:14:28.508Z,19.30
2022-12-01T09:16:58.176Z,19.80
2022-12-01T09:19:29.102Z,20.90
2022-12-01T09:21:59.615Z,20.80
2022-12-01T09:24:29.791Z,20.90
2022-12-01T09:27:00.843Z,21.50
2022-12-01T09:29:31.771Z,21.80
2022-12-01T09:32:01.895Z,23.00
2022-12-01T09:34:31.883Z,23.40
2022-12-01T09:37:01.183Z,25.20
2022-12-01T09:39:30.925Z,23.60
2022-12-01T09:42:19.047Z,25.10
2022-12-01T09:47:30.625Z,22.90
2022-12-01T09:52:46.769Z,24.70
2022-12-01T09:55:17.785Z,24.90
2022-12-01T09:57:55.938Z,24.90
2022-12-01T10:00:46.756Z,24.90
2022-12-01T10:03:31.315Z,26.30
2022-12-01T10:06:27.357Z,26.20
2022-12-01T10:09:14.412Z,26.90
2022-12-01T10:11:46.364Z,24.70
2022-12-01T10:14:20.128Z,22.30
2022-12-01T10:17:00.147Z,17.80
2022-12-01T10:19:42.429Z,6.90
2022-12-01T10:22:39.878Z,5.60
2022-12-01T10:25:21.099Z,5.10
2022-12-01T10:28:29.599Z,5.20
2022-12-01T10:31:20.952Z,5.30
2022-12-01T10:34:04.413Z,4.30
2022-12-01T10:36:35.136Z,4.30
2022-12-01T10:39:07.508Z,4.50
2022-12-01T10:41:39.845Z,5.50
2022-12-01T10:44:10.677Z,5.40
2022-12-01T10:46:56.216Z,5.30
2022-12-01T10:49:38.234Z,6.10
2022-12-01T10:52:08.318Z,6.90
2022-12-01T10:54:41.473Z,6.80
2022-12-01T10:57:18.097Z,7.80
2022-12-01T10:59:57.238Z,7.90
2022-12-01T11:02:29.943Z,7.80
2022-12-01T11:05:06.706Z,7.30
2022-12-01T11:07:48.223Z,8.00
2022-12-01T11:10:29.600Z,6.80
2022-12-01T11:13:07.166Z,6.40
2022-12-01T11:15:49.913Z,6.40
2022-12-01T11:18:21.457Z,5.80
2022-12-01T11:21:14.782Z,6.00
2022-12-01T11:23:52.578Z,5.40
2022-12-01T11:26:28.172Z,5.00
2022-12-01T11:29:00.915Z,4.70
2022-12-01T11:31:48.342Z,4.70
2022-12-01T11:34:27.517Z,4.10
2022-12-01T11:37:02.887Z,3.70
2022-12-01T11:39:42.128Z,4.30
2022-12-01T11:42:31.745Z,4.20
2022-12-01T11:45:27.500Z,4.10
2022-12-01T11:48:13.130Z,3.90
2022-12-01T11:50:45.545Z,3.70
2022-12-01T11:53:30.498Z,3.80
2022-12-01T11:56:22.905Z,4.40
2022-12-01T11:59:03.580Z,4.50
2022-12-01T12:02:01.913Z,4.10
2022-12-01T12:04:46.401Z,3.80
2022-12-01T12:07:40.175Z,4.10
2022-12-01T12:10:37.880Z,3.60
2022-12-01T12:13:17.281Z,3.70
2022-12-01T12:16:11.508Z,3.50
2022-12-01T12:18:46.263Z,3.90
2022-12-01T12:21:34.145Z,3.90
2022-12-01T12:24:31.732Z,3.80
2022-12-01T12:27:15.804Z,4.30
2022-12-01T12:30:06.716Z,3.90
2022-12-01T12:33:02.597Z,3.80
2022-12-01T12:36:06.163Z,3.80
2022-12-01T12:38:55.438Z,4.30
2022-12-01T12:41:39.625Z,5.70
2022-12-01T12:44:16.397Z,4.40
2022-12-01T12:47:31.341Z,4.20
2022-12-01T12:50:26.587Z,6.00
2022-12-01T12:53:03.999Z,4.50
2022-12-01T12:55:43.492Z,4.30
2022-12-01T12:59:04.406Z,3.80
2022-12-01T13:01:44.685Z,4.60
2022-12-01T13:04:25.034Z,3.80
2022-12-01T13:07:03.991Z,4.70
2022-12-01T13:09:42.426Z,4.50
2022-12-01T13:12:40.901Z,4.20
2022-12-01T13:15:21.821Z,4.40
2022-12-01T13:18:04.363Z,4.40
2022-12-01T13:20:37.063Z,4.90
2022-12-01T13:23:15.066Z,5.20
2022-12-01T13:25:49.308Z,6.30
2022-12-01T13:28:24.219Z,4.80
2022-12-01T13:31:10.672Z,4.90
2022-12-01T13:33:47.079Z,5.10
2022-12-01T13:36:45.595Z,5.00
2022-12-01T13:39:22.211Z,5.40
2022-12-01T13:42:07.936Z,5.10
2022-12-01T13:44:40.840Z,5.60
2022-12-01T13:47:14.026Z,6.10
2022-12-01T13:49:45.634Z,6.30
2022-12-01T13:52:28.555Z,6.30
2022-12-01T13:55:27.506Z,6.60
2022-12-01T13:57:57.755Z,6.70
2022-12-01T14:00:31.037Z,6.80
2022-12-01T14:03:16.871Z,6.60
2022-12-01T14:06:06.007Z,6.50
2022-12-01T14:08:48.323Z,5.80
2022-12-01T14:11:25.502Z,6.20
2022-12-01T14:14:26.060Z,7.00
2022-12-01T14:17:01.307Z,7.80
2022-12-01T14:19:53.071Z,7.00
2022-12-01T14:22:44.425Z,8.00
2022-12-01T14:25:33.094Z,8.80
2022-12-01T14:28:04.363Z,8.10
2022-12-01T14:30:46.986Z,10.20
2022-12-01T14:33:46.664Z,9.50
2022-12-01T14:36:37.870Z,10.40
2022-12-01T14:39:22.635Z,9.50
2022-12-01T14:41:56.929Z,9.70
2022-12-01T14:44:48.628Z,10.60
2022-12-01T14:47:38.219Z,9.10
2022-12-01T14:50:21.106Z,8.80
2022-12-01T14:53:07.505Z,7.50
2022-12-01T14:55:48.348Z,6.90
2022-12-01T14:58:25.618Z,8.40
2022-12-01T15:01:03.925Z,22.30
2022-12-01T15:03:42.939Z,11.60
2022-12-01T15:06:19.210Z,10.70
2022-12-01T15:09:32.311Z,9.20
2022-12-01T15:12:00.541Z,9.70
2022-12-01T15:14:35.838Z,14.50
2022-12-01T15:17:09.255Z,16.80
2022-12-01T15:19:44.297Z,23.50
2022-12-01T15:22:17.806Z,34.60
2022-12-01T15:24:49.670Z,38.20
2022-12-01T15:27:30.678Z,32.70
2022-12-01T15:30:05.080Z,23.60
2022-12-01T15:32:41.312Z,15.50
2022-12-01T15:35:20.259Z,70.20
2022-12-01T15:37:51.221Z,53.80
2022-12-01T15:41:06.145Z,16.30
2022-12-01T15:43:28.577Z,11.40
2022-12-01T15:46:00.601Z,9.90
2022-12-01T15:48:36.111Z,14.20
2022-12-01T15:51:18.947Z,12.80
2022-12-01T15:53:55.979Z,11.00
2022-12-01T15:56:29.524Z,34.00
2022-12-01T15:59:09.738Z,42.30
2022-12-01T16:01:41.344Z,33.60
2022-12-01T16:04:23.193Z,30.60
2022-12-01T16:07:01.072Z,16.50
2022-12-01T16:09:59.578Z,37.10
2022-12-01T16:12:34.075Z,19.80
2022-12-01T16:15:15.839Z,25.00
2022-12-01T16:17:53.022Z,25.30
2022-12-01T16:20:26.907Z,38.20
2022-12-01T16:22:59.554Z,15.70
2022-12-01T16:25:33.891Z,12.70
2022-12-01T16:28:05.744Z,22.10
2022-12-01T16:30:40.128Z,32.80
2022-12-01T16:33:22.551Z,42.20
2022-12-01T16:35:52.971Z,41.40
2022-12-01T16:38:24.851Z,35.40
2022-12-01T16:40:59.259Z,42.60
2022-12-01T16:43:30.234Z,54.00
2022-12-01T16:46:03.974Z,54.10
2022-12-01T16:48:35.342Z,54.00
2022-12-01T16:51:07.937Z,61.30
2022-12-01T16:53:37.977Z,68.80
2022-12-01T16:56:13.013Z,55.60
2022-12-01T16:58:45.069Z,61.80
2022-12-01T17:01:14.729Z,60.40
2022-12-01T17:03:44.972Z,63.90
2022-12-01T17:06:19.241Z,50.10
2022-12-01T17:08:49.263Z,62.50
2022-12-01T17:11:18.900Z,70.80
2022-12-01T17:13:48.960Z,80.00
2022-12-01T17:16:19.214Z,81.00
2022-12-01T17:18:49.225Z,82.10
2022-12-01T17:21:19.011Z,82.20
2022-12-01T17:23:49.347Z,70.20
2022-12-01T17:26:20.442Z,62.20
2022-12-01T17:28:50.432Z,60.20
2022-12-01T17:31:19.031Z,59.60
2022-12-01T17:33:49.800Z,63.00
2022-12-01T17:36:20.037Z,70.10
2022-12-01T17:38:50.764Z,69.90
2022-12-01T17:41:25.928Z,61.30
2022-12-01T17:43:57.465Z,57.70
2022-12-01T17:46:27.723Z,56.70
2022-12-01T17:48:58.058Z,70.30
2022-12-01T17:51:28.594Z,65.00
2022-12-01T17:53:58.470Z,64.50
2022-12-01T17:56:28.569Z,65.20
2022-12-01T17:58:58.644Z,56.50
2022-12-01T18:01:30.364Z,56.10
2022-12-01T18:04:00.731Z,55.60
2022-12-01T18:06:30.803Z,53.80
2022-12-01T18:09:01.949Z,68.60
2022-12-01T18:11:32.118Z,74.40
2022-12-01T18:14:02.175Z,75.00
2022-12-01T18:16:33.100Z,67.80
2022-12-01T18:19:03.758Z,42.60
2022-12-01T18:21:33.761Z,38.00
2022-12-01T18:24:05.484Z,44.30
2022-12-01T18:26:34.105Z,61.30
2022-12-01T18:29:08.476Z,53.20
2022-12-01T18:31:38.382Z,57.60
2022-12-01T18:34:10.293Z,54.50
2022-12-01T18:36:42.682Z,51.50
2022-12-01T18:39:12.922Z,49.60
2022-12-01T18:41:41.551Z,40.50
2022-12-01T18:44:11.500Z,34.40
2022-12-01T18:46:41.833Z,36.70
2022-12-01T18:49:12.230Z,40.00
2022-12-01T18:51:42.193Z,51.20
2022-12-01T18:54:14.476Z,35.70
2022-12-01T18:56:45.845Z,30.10
2022-12-01T18:59:17.565Z,28.90
2022-12-01T19:01:48.926Z,31.00
2022-12-01T19:04:19.795Z,29.40
2022-12-01T19:06:49.947Z,37.40
2022-12-01T19:09:19.999Z,39.20
2022-12-01T19:11:50.159Z,38.30
2022-12-01T19:14:20.276Z,29.70
2022-12-01T19:16:50.970Z,24.90
2022-12-01T19:19:20.927Z,28.00
2022-12-01T19:21:51.415Z,28.70
2022-12-01T19:24:21.543Z,29.70
2022-12-01T19:26:51.896Z,29.60
2022-12-01T19:29:21.984Z,32.70
2022-12-01T19:31:52.351Z,30.90
2022-12-01T19:34:22.366Z,31.80
2022-12-01T19:36:54.013Z,35.70
2022-12-01T19:39:24.067Z,40.10
2022-12-01T19:41:57.675Z,32.20
2022-12-01T19:44:28.526Z,30.60
2022-12-01T19:46:58.917Z,28.10
2022-12-01T19:49:28.884Z,22.70
2022-12-01T19:51:58.982Z,27.40
2022-12-01T19:54:28.882Z,30.70
2022-12-01T19:56:59.113Z,39.40
2022-12-01T19:59:29.120Z,62.20
2022-12-01T20:01:59.306Z,61.40
2022-12-01T20:04:29.414Z,50.40
2022-12-01T20:06:59.839Z,61.30
2022-12-01T20:09:29.447Z,79.10
2022-12-01T20:11:59.510Z,88.30
2022-12-01T20:14:29.482Z,52.00
2022-12-01T20:16:59.715Z,59.50
2022-12-01T20:19:29.334Z,74.00
2022-12-01T20:21:59.450Z,71.10
2022-12-01T20:24:29.589Z,58.80
2022-12-01T20:26:59.246Z,56.70
2022-12-01T20:29:30.284Z,59.30
2022-12-01T20:32:03.246Z,60.60
2022-12-01T20:34:36.621Z,55.10
2022-12-01T20:37:06.583Z,60.30
2022-12-01T20:39:38.421Z,57.10
2022-12-01T20:42:09.898Z,74.20
2022-12-01T20:44:40.707Z,72.10
2022-12-01T20:47:11.264Z,76.90
2022-12-01T20:49:41.110Z,94.00
2022-12-01T20:52:11.375Z,107.10
2022-12-01T20:54:42.818Z,80.90
2022-12-01T20:57:12.592Z,64.00
2022-12-01T20:59:42.519Z,59.20
2022-12-01T21:02:12.568Z,59.90
2022-12-01T21:04:42.740Z,59.70
2022-12-01T21:07:12.487Z,60.40
2022-12-01T21:09:42.531Z,59.10
2022-12-01T21:12:35.777Z,60.30
2022-12-01T21:15:28.847Z,61.80
2022-12-01T21:18:17.526Z,58.90
2022-12-01T21:20:51.017Z,59.60
2022-12-01T21:23:20.697Z,56.70
2022-12-01T21:25:51.548Z,59.50
2022-12-01T21:28:24.387Z,71.70
2022-12-01T21:31:07.977Z,83.90
2022-12-01T21:33:41.297Z,79.70
2022-12-01T21:36:18.925Z,71.20
2022-12-01T21:38:56.253Z,84.50
2022-12-01T21:41:28.148Z,69.00
2022-12-01T21:44:08.461Z,67.30
2022-12-01T21:46:41.600Z,66.20
2022-12-01T21:49:20.038Z,64.90
2022-12-01T21:51:52.506Z,79.90
2022-12-01T21:54:23.090Z,69.50
2022-12-01T21:56:56.690Z,76.20
2022-12-01T21:59:26.290Z,75.40
2022-12-01T22:01:57.915Z,75.10
2022-12-01T22:04:31.690Z,72.10
2022-12-01T22:07:01.615Z,66.60
2022-12-01T22:09:35.408Z,60.30
2022-12-01T22:12:32.534Z,57.00
2022-12-01T22:15:12.628Z,58.00
2022-12-01T22:17:42.036Z,58.60
2022-12-01T22:20:23.310Z,61.20
2022-12-01T22:22:53.608Z,54.50
2022-12-01T22:25:26.751Z,57.80
2022-12-01T22:28:00.318Z,55.90
2022-12-01T22:30:30.100Z,58.50
2022-12-01T22:33:05.372Z,55.90
2022-12-01T22:35:51.170Z,58.80
2022-12-01T22:38:37.724Z,62.70
2022-12-01T22:41:16.247Z,60.80
2022-12-01T22:43:47.685Z,55.80
2022-12-01T22:46:36.274Z,52.40
2022-12-01T22:49:20.221Z,53.20
2022-12-01T22:51:56.488Z,52.70
2022-12-01T22:54:32.708Z,50.80
2022-12-01T22:57:18.956Z,51.60
2022-12-01T22:59:50.683Z,53.00
2022-12-01T23:02:34.393Z,51.40
2022-12-01T23:05:25.513Z,51.80
2022-12-01T23:07:56.429Z,50.70
2022-12-01T23:10:31.894Z,54.30
2022-12-01T23:13:14.598Z,61.50
2022-12-01T23:15:49.498Z,51.00
2022-12-01T23:18:22.829Z,58.80
2022-12-01T23:20:55.478Z,58.60
2022-12-01T23:23:34.244Z,51.50
2022-12-01T23:26:08.362Z,59.80
2022-12-01T23:28:41.695Z,55.80
2022-12-01T23:31:11.938Z,49.50
2022-12-01T23:33:41.761Z,47.50
2022-12-01T23:36:20.678Z,47.30
2022-12-01T23:38:57.928Z,47.90
2022-12-01T23:41:37.516Z,47.40
2022-12-01T23:44:39.363Z,46.30
2022-12-01T23:47:23.174Z,45.00
2022-12-01T23:50:00.447Z,44.40
2022-12-01T23:52:36.485Z,45.80
2022-12-01T23:55:20.821Z,46.80
2022-12-01T23:57:51.762Z,58.50
